sensor_id;sensor_type;location;lat;lon;timestamp;pressure;altitude;pressure_sealevel;temperature;humidity
43281;BME280;62175;49.416;8.690;2023-01-31T00:01:48;101528.77;;;7.72;51.64
43281;BME280;62175;49.416;8.690;2023-01-31T00:04:16;101530.63;;;7.47;51.93
43281;BME280;62175;49.416;8.690;2023-01-31T00:06:44;101527.85;;;7.47;52.05
43281;BME280;62175;49.416;8.690;2023-01-31T00:09:12;101528.80;;;7.62;52.21
43281;BME280;62175;49.416;8.690;2023-01-31T00:11:39;101528.60;;;7.73;51.58
43281;BME280;62175;49.416;8.690;2023-01-31T00:14:08;101526.89;;;7.75;52.32
43281;BME280;62175;49.416;8.690;2023-01-31T00:16:35;101526.64;;;7.41;51.60
43281;BME280;62175;49.416;8.690;2023-01-31T00:19:03;101527.86;;;7.59;52.70
43281;BME280;62175;49.416;8.690;2023-01-31T00:21:31;101530.39;;;7.50;51.93
43281;BME280;62175;49.416;8.690;2023-01-31T00:23:59;101531.72;;;7.73;51.91
43281;BME280;62175;49.416;8.690;2023-01-31T00:26:28;101535.61;;;7.68;51.98
43281;BME280;62175;49.416;8.690;2023-01-31T00:28:58;101531.42;;;7.58;51.32
43281;BME280;62175;49.416;8.690;2023-01-31T00:31:27;101539.52;;;7.22;51.72
43281;BME280;62175;49.416;8.690;2023-01-31T00:33:56;101536.10;;;7.35;52.08
43281;BME280;62175;49.416;8.690;2023-01-31T00:36:27;101529.67;;;7.74;52.37
43281;BME280;62175;49.416;8.690;2023-01-31T00:38:58;101532.87;;;7.20;52.06
43281;BME280;62175;49.416;8.690;2023-01-31T00:41:27;101531.83;;;7.32;51.87
43281;BME280;62175;49.416;8.690;2023-01-31T00:43:56;101529.27;;;7.36;52.57
43281;BME280;62175;49.416;8.690;2023-01-31T00:46:22;101530.21;;;7.60;52.32
43281;BME280;62175;49.416;8.690;2023-01-31T00:48:50;101529.74;;;7.47;52.28
43281;BME280;62175;49.416;8.690;2023-01-31T00:51:18;101532.64;;;7.70;51.98
43281;BME280;62175;49.416;8.690;2023-01-31T00:53:46;101531.09;;;7.40;52.96
43281;BME280;62175;49.416;8.690;2023-01-31T00:56:15;101527.79;;;7.05;52.10
43281;BME280;62175;49.416;8.690;2023-01-31T00:58:43;101519.58;;;7.94;52.49
43281;BME280;62175;49.416;8.690;2023-01-31T01:01:13;101516.09;;;7.71;51.76
43281;BME280;62175;49.416;8.690;2023-01-31T01:03:42;101523.01;;;7.53;52.47
43281;BME280;62175;49.416;8.690;2023-01-31T01:06:11;101522.26;;;7.19;52.04
43281;BME280;62175;49.416;8.690;2023-01-31T01:08:40;101522.32;;;7.37;53.38
43281;BME280;62175;49.416;8.690;2023-01-31T01:11:10;101518.77;;;7.60;51.91
43281;BME280;62175;49.416;8.690;2023-01-31T01:13:38;101514.92;;;7.45;52.07
43281;BME280;62175;49.416;8.690;2023-01-31T01:16:07;101518.62;;;7.32;53.09
43281;BME280;62175;49.416;8.690;2023-01-31T01:18:36;101525.51;;;7.28;51.97
43281;BME280;62175;49.416;8.690;2023-01-31T01:21:06;101532.00;;;7.12;51.76
43281;BME280;62175;49.416;8.690;2023-01-31T01:23:33;101530.30;;;7.23;51.73
43281;BME280;62175;49.416;8.690;2023-01-31T01:26:00;101528.48;;;7.41;51.81
43281;BME280;62175;49.416;8.690;2023-01-31T01:28:28;101532.62;;;7.49;52.16
43281;BME280;62175;49.416;8.690;2023-01-31T01:30:55;101534.80;;;7.43;52.55
43281;BME280;62175;49.416;8.690;2023-01-31T01:33:23;101533.57;;;7.87;51.98
43281;BME280;62175;49.416;8.690;2023-01-31T01:35:50;101531.30;;;7.44;52.21
43281;BME280;62175;49.416;8.690;2023-01-31T01:38:17;101527.68;;;7.48;51.37
43281;BME280;62175;49.416;8.690;2023-01-31T01:40:45;101532.16;;;7.71;52.05
43281;BME280;62175;49.416;8.690;2023-01-31T01:43:13;101536.66;;;7.54;51.74
43281;BME280;62175;49.416;8.690;2023-01-31T01:45:41;101532.07;;;7.64;51.79
43281;BME280;62175;49.416;8.690;2023-01-31T01:48:15;101536.34;;;7.50;51.40
43281;BME280;62175;49.416;8.690;2023-01-31T01:50:46;101539.23;;;7.46;51.59
43281;BME280;62175;49.416;8.690;2023-01-31T01:53:37;101539.83;;;7.10;51.52
43281;BME280;62175;49.416;8.690;2023-01-31T01:56:09;101542.89;;;7.32;51.17
43281;BME280;62175;49.416;8.690;2023-01-31T01:59:11;101548.03;;;7.16;51.57
43281;BME280;62175;49.416;8.690;2023-01-31T02:01:40;101548.71;;;7.57;51.97
43281;BME280;62175;49.416;8.690;2023-01-31T02:04:12;101553.01;;;7.18;51.31
43281;BME280;62175;49.416;8.690;2023-01-31T02:06:42;101551.33;;;7.68;51.60
43281;BME280;62175;49.416;8.690;2023-01-31T23:02:49;101234.66;;;8.06;56.14
43281;BME280;62175;49.416;8.690;2023-01-31T23:05:17;101231.53;;;8.21;55.85
43281;BME280;62175;49.416;8.690;2023-01-31T23:07:46;101228.19;;;8.21;55.31
43281;BME280;62175;49.416;8.690;2023-01-31T23:10:25;101231.06;;;8.61;54.82
43281;BME280;62175;49.416;8.690;2023-01-31T23:12:52;101233.60;;;8.62;55.05
43281;BME280;62175;49.416;8.690;2023-01-31T23:15:20;101229.20;;;8.63;55.97
43281;BME280;62175;49.416;8.690;2023-01-31T23:17:47;101219.06;;;8.86;55.09
43281;BME280;62175;49.416;8.690;2023-01-31T23:20:16;101211.37;;;8.60;55.08
43281;BME280;62175;49.416;8.690;2023-01-31T23:22:45;101204.30;;;8.54;55.27
43281;BME280;62175;49.416;8.690;2023-01-31T23:25:13;101206.87;;;8.64;55.13
43281;BME280;62175;49.416;8.690;2023-01-31T23:27:40;101202.95;;;8.72;54.71
43281;BME280;62175;49.416;8.690;2023-01-31T23:30:10;101199.35;;;8.35;55.36
43281;BME280;62175;49.416;8.690;2023-01-31T23:32:38;101197.17;;;8.20;55.38
43281;BME280;62175;49.416;8.690;2023-01-31T23:35:07;101190.36;;;8.52;55.29
43281;BME280;62175;49.416;8.690;2023-01-31T23:37:35;101198.00;;;8.15;55.47
43281;BME280;62175;49.416;8.690;2023-01-31T23:40:03;101206.27;;;8.29;55.79
43281;BME280;62175;49.416;8.690;2023-01-31T23:42:32;101223.29;;;8.51;55.94
43281;BME280;62175;49.416;8.690;2023-01-31T23:44:59;101209.99;;;8.72;56.10
43281;BME280;62175;49.416;8.690;2023-01-31T23:47:26;101214.02;;;8.26;55.24
